createdAt,value
2018-10-19T00:00:26.716Z,50.09
2018-10-19T00:02:56.881Z,49.74
2018-10-19T00:05:26.734Z,49.91
2018-10-19T00:07:56.654Z,49.94
2018-10-19T00:10:26.995Z,49.82
2018-10-19T00:12:57.965Z,50.01
2018-10-19T00:15:27.778Z,51.63
2018-10-19T00:17:57.569Z,53.18
2018-10-19T00:20:27.798Z,51.62
2018-10-19T00:22:57.677Z,51.34
2018-10-19T00:25:27.782Z,51.06
2018-10-19T00:27:57.503Z,50.96
2018-10-19T00:30:27.334Z,50.83
2018-10-19T00:32:57.001Z,51.17
2018-10-19T00:35:26.819Z,51.91
2018-10-19T00:37:56.753Z,53.54
2018-10-19T00:40:26.605Z,51.80
2018-10-19T00:42:56.356Z,51.14
2018-10-19T00:45:30.244Z,51.15
2018-10-19T00:48:01.160Z,50.94
2018-10-19T00:50:30.974Z,51.10
2018-10-19T00:53:00.765Z,51.43
2018-10-19T00:55:30.503Z,52.30
2018-10-19T00:58:00.298Z,53.72
2018-10-19T01:00:30.046Z,53.88
2018-10-19T01:02:59.900Z,54.95
2018-10-19T01:05:29.752Z,54.55
2018-10-19T01:07:59.660Z,55.56
2018-10-19T01:10:29.493Z,56.13
2018-10-19T01:13:00.358Z,56.37
2018-10-19T01:15:31.193Z,56.00
2018-10-19T01:18:01.360Z,54.29
2018-10-19T01:20:32.259Z,54.58
2018-10-19T01:23:02.104Z,53.72
2018-10-19T01:25:32.450Z,53.72
2018-10-19T01:28:02.376Z,53.16
2018-10-19T01:30:32.466Z,52.76
2018-10-19T01:33:02.437Z,52.35
2018-10-19T01:35:32.296Z,51.90
2018-10-19T01:38:02.257Z,51.99
2018-10-19T01:40:32.186Z,52.04
2018-10-19T01:43:02.041Z,51.22
2018-10-19T01:45:32.008Z,52.91
2018-10-19T01:48:02.035Z,52.49
2018-10-19T01:50:31.823Z,52.17
2018-10-19T01:53:01.624Z,52.23
2018-10-19T01:55:31.470Z,51.25
2018-10-19T01:58:02.073Z,51.40
2018-10-19T02:00:31.910Z,51.36
2018-10-19T02:03:01.736Z,51.14
2018-10-19T02:05:31.566Z,51.19
2018-10-19T02:08:01.427Z,50.96
2018-10-19T02:10:31.231Z,51.33
2018-10-19T02:13:00.970Z,51.59
2018-10-19T02:15:30.863Z,50.95
2018-10-19T02:18:00.727Z,51.02
2018-10-19T02:20:30.485Z,51.75
2018-10-19T02:23:00.444Z,51.12
2018-10-19T02:25:30.211Z,51.78
2018-10-19T02:28:00.508Z,52.03
2018-10-19T02:30:30.386Z,52.33
2018-10-19T02:33:00.418Z,53.01
2018-10-19T02:35:30.385Z,53.34
2018-10-19T02:38:00.266Z,53.85
2018-10-19T02:40:30.102Z,55.17
2018-10-19T02:42:59.907Z,54.17
2018-10-19T02:45:33.915Z,54.46
2018-10-19T02:48:04.406Z,54.59
2018-10-19T02:50:34.666Z,54.25
2018-10-19T02:53:04.597Z,54.25
2018-10-19T02:55:34.423Z,53.93
2018-10-19T02:58:04.400Z,53.94
2018-10-19T03:00:34.279Z,53.69
2018-10-19T03:03:04.302Z,53.44
2018-10-19T03:05:34.198Z,53.85
2018-10-19T03:08:03.822Z,53.22
2018-10-19T03:10:33.711Z,53.42
2018-10-19T03:13:03.792Z,54.23
2018-10-19T03:15:33.746Z,54.13
2018-10-19T03:18:03.623Z,53.49
2018-10-19T03:20:33.521Z,53.28
2018-10-19T03:23:03.422Z,53.14
2018-10-19T03:25:33.285Z,52.87
2018-10-19T03:28:03.563Z,53.19
2018-10-19T03:30:33.437Z,52.76
2018-10-19T03:33:03.332Z,52.87
2018-10-19T03:35:33.214Z,52.61
2018-10-19T03:38:03.163Z,52.21
2018-10-19T03:40:33.077Z,52.52
2018-10-19T03:43:03.337Z,54.97
2018-10-19T03:45:32.956Z,56.53
2018-10-19T03:48:02.906Z,57.16
2018-10-19T03:50:33.003Z,56.98
2018-10-19T03:53:02.924Z,57.99
2018-10-19T03:55:32.790Z,59.17
2018-10-19T03:58:02.630Z,58.40
2018-10-19T04:00:32.413Z,57.10
2018-10-19T04:03:02.423Z,56.46
2018-10-19T04:05:32.394Z,56.83
2018-10-19T04:08:02.355Z,56.01
2018-10-19T04:10:32.039Z,56.00
2018-10-19T04:13:02.404Z,55.36
2018-10-19T04:15:32.378Z,55.37
2018-10-19T04:18:02.373Z,54.36
2018-10-19T04:20:32.355Z,54.70
2018-10-19T04:23:09.355Z,57.08
2018-10-19T04:25:40.128Z,58.03
2018-10-19T04:28:10.420Z,61.19
2018-10-19T04:30:40.798Z,61.95
2018-10-19T04:33:10.641Z,58.77
2018-10-19T04:35:40.481Z,56.91
2018-10-19T04:38:10.293Z,56.01
2018-10-19T04:40:40.249Z,55.18
2018-10-19T04:43:10.229Z,55.80
2018-10-19T04:45:40.174Z,54.99
2018-10-19T04:48:10.096Z,55.36
2018-10-19T04:50:39.943Z,54.93
2018-10-19T04:53:09.921Z,55.75
2018-10-19T04:55:39.766Z,55.20
2018-10-19T04:58:09.667Z,54.95
2018-10-19T05:00:39.482Z,56.02
2018-10-19T05:03:09.337Z,55.65
2018-10-19T05:05:39.329Z,55.97
2018-10-19T05:08:09.223Z,55.31
2018-10-19T05:10:39.179Z,56.08
2018-10-19T05:13:09.121Z,55.50
2018-10-19T05:15:38.995Z,56.22
2018-10-19T05:18:08.681Z,57.42
2018-10-19T05:20:38.502Z,58.66
2018-10-19T05:23:08.549Z,57.56
2018-10-19T05:25:38.459Z,56.73
2018-10-19T05:28:08.443Z,57.10
2018-10-19T05:30:38.373Z,56.00
2018-10-19T05:33:08.327Z,55.11
2018-10-19T05:35:38.288Z,54.00
2018-10-19T05:38:08.236Z,54.33
2018-10-19T05:40:37.996Z,53.41
2018-10-19T05:43:07.904Z,53.14
2018-10-19T05:45:37.890Z,52.51
2018-10-19T05:48:07.927Z,51.15
2018-10-19T05:50:37.847Z,51.68
2018-10-19T05:53:07.999Z,51.21
2018-10-19T05:55:39.159Z,50.70
2018-10-19T05:58:10.495Z,50.80
2018-10-19T06:00:42.072Z,49.87
2018-10-19T06:03:12.040Z,49.60
2018-10-19T06:05:42.041Z,48.42
2018-10-19T06:08:12.009Z,47.29
2018-10-19T06:10:43.123Z,46.97
2018-10-19T06:13:13.165Z,47.61
2018-10-19T06:15:43.095Z,46.64
2018-10-19T06:18:12.992Z,45.43
2018-10-19T06:20:43.856Z,43.71
2018-10-19T06:23:13.849Z,42.50
2018-10-19T06:25:43.799Z,42.01
2018-10-19T06:28:13.822Z,43.07
2018-10-19T06:30:44.931Z,44.08
2018-10-19T06:33:14.821Z,42.98
2018-10-19T06:35:44.483Z,42.29
2018-10-19T06:38:14.379Z,43.12
2018-10-19T06:40:45.441Z,42.64
2018-10-19T06:43:15.281Z,41.89
2018-10-19T06:45:45.229Z,40.68
2018-10-19T06:48:15.023Z,40.54
2018-10-19T06:50:45.221Z,39.73
2018-10-19T06:53:15.307Z,38.96
2018-10-19T06:55:45.182Z,38.81
2018-10-19T06:58:14.990Z,39.47
2018-10-19T07:00:44.955Z,38.06
2018-10-19T07:03:14.922Z,38.10
2018-10-19T07:05:44.901Z,38.22
2018-10-19T07:08:15.529Z,36.74
2018-10-19T07:10:46.242Z,37.29
2018-10-19T07:13:15.981Z,35.99
2018-10-19T07:15:45.896Z,35.50
2018-10-19T07:18:15.729Z,35.48
2018-10-19T07:20:46.349Z,36.24
2018-10-19T07:23:16.271Z,34.92
2018-10-19T07:25:46.102Z,34.38
2018-10-19T07:28:16.031Z,34.29
2018-10-19T07:30:47.122Z,33.45
2018-10-19T07:33:16.898Z,34.65
2018-10-19T07:35:46.594Z,35.82
2018-10-19T07:38:16.566Z,33.13
2018-10-19T07:40:46.735Z,33.14
2018-10-19T07:43:16.828Z,35.22
2018-10-19T07:45:46.857Z,33.02
2018-10-19T07:48:16.993Z,32.14
2018-10-19T07:50:47.432Z,31.53
2018-10-19T07:53:17.500Z,31.63
2018-10-19T07:55:47.568Z,30.73
2018-10-19T07:58:17.692Z,29.66
2018-10-19T08:00:48.907Z,29.12
2018-10-19T08:03:19.050Z,30.13
2018-10-19T08:05:49.151Z,31.83
2018-10-19T08:08:19.215Z,29.96
2018-10-19T08:10:50.056Z,28.92
2018-10-19T08:13:20.188Z,29.02
2018-10-19T08:15:50.270Z,28.65
2018-10-19T08:18:20.368Z,29.29
2018-10-19T08:20:50.528Z,29.04
2018-10-19T08:23:20.630Z,26.33
2018-10-19T08:25:50.716Z,25.14
2018-10-19T08:28:20.786Z,26.88
2018-10-19T08:30:51.699Z,26.59
2018-10-19T08:33:21.793Z,24.67
2018-10-19T08:35:51.863Z,25.06
2018-10-19T08:38:22.026Z,25.47
2018-10-19T08:40:52.193Z,25.03
2018-10-19T08:43:22.248Z,25.48
2018-10-19T08:45:52.327Z,25.92
2018-10-19T08:48:22.526Z,26.78
2018-10-19T08:50:53.164Z,25.91
2018-10-19T08:53:23.287Z,26.58
2018-10-19T08:55:53.355Z,24.48
2018-10-19T08:58:23.491Z,27.64
2018-10-19T09:00:53.812Z,28.67
2018-10-19T09:03:23.955Z,28.81
2018-10-19T09:05:54.060Z,27.06
2018-10-19T09:08:24.191Z,28.09
2018-10-19T09:10:55.123Z,29.00
2018-10-19T09:13:25.214Z,29.54
2018-10-19T09:15:55.329Z,29.97
2018-10-19T09:18:25.482Z,29.91
2018-10-19T09:20:56.053Z,30.04
2018-10-19T09:23:26.165Z,30.44
2018-10-19T09:25:56.191Z,30.50
2018-10-19T09:28:26.144Z,30.62
2018-10-19T09:30:57.535Z,32.03
2018-10-19T09:33:27.662Z,31.29
2018-10-19T09:35:57.684Z,30.73
2018-10-19T09:38:27.832Z,30.77
2018-10-19T09:40:58.452Z,30.58
2018-10-19T09:43:28.551Z,29.73
2018-10-19T09:45:58.716Z,30.37
2018-10-19T09:48:28.850Z,31.24
2018-10-19T09:51:00.132Z,31.56
2018-10-19T09:53:30.115Z,31.43
2018-10-19T09:56:00.153Z,31.57
2018-10-19T09:58:30.294Z,30.75
2018-10-19T10:01:01.468Z,31.65
2018-10-19T10:03:31.573Z,30.54
2018-10-19T10:06:01.663Z,28.26
2018-10-19T10:08:31.712Z,28.36
2018-10-19T10:11:01.818Z,26.70
2018-10-19T10:13:31.926Z,26.26
2018-10-19T10:16:02.009Z,27.46
2018-10-19T10:18:32.105Z,23.16
2018-10-19T10:21:02.104Z,22.88
2018-10-19T10:23:32.199Z,25.81
2018-10-19T10:26:02.335Z,19.97
2018-10-19T10:28:32.465Z,20.00
2018-10-19T10:31:03.254Z,20.04
2018-10-19T10:33:33.361Z,19.92
2018-10-19T10:36:03.788Z,20.81
2018-10-19T10:38:34.144Z,21.53
2018-10-19T10:41:04.499Z,22.40
2018-10-19T10:43:34.564Z,22.90
2018-10-19T10:46:04.744Z,22.75
2018-10-19T10:48:34.736Z,23.22
2018-10-19T10:51:05.933Z,21.24
2018-10-19T10:53:36.039Z,22.04
2018-10-19T10:56:06.252Z,23.70
2018-10-19T10:58:36.313Z,23.52
2018-10-19T11:01:06.925Z,25.05
2018-10-19T11:03:37.022Z,24.05
2018-10-19T11:06:07.244Z,25.58
2018-10-19T11:08:37.310Z,26.16
2018-10-19T11:11:12.439Z,25.23
2018-10-19T11:13:43.244Z,24.20
2018-10-19T11:16:14.265Z,23.09
2018-10-19T11:18:44.423Z,24.03
2018-10-19T11:21:14.517Z,24.61
2018-10-19T11:23:44.592Z,24.80
2018-10-19T11:26:14.652Z,26.87
2018-10-19T11:28:44.714Z,26.78
2018-10-19T11:31:15.400Z,25.96
2018-10-19T11:33:45.421Z,26.94
2018-10-19T11:36:15.312Z,25.83
2018-10-19T11:38:45.379Z,24.91
2018-10-19T11:41:16.307Z,23.04
2018-10-19T11:43:46.228Z,22.25
2018-10-19T11:46:16.345Z,21.74
2018-10-19T11:48:46.447Z,20.97
2018-10-19T11:51:17.021Z,20.69
2018-10-19T11:53:47.092Z,20.58
2018-10-19T11:56:17.157Z,20.82
2018-10-19T11:58:47.229Z,20.30
2018-10-19T12:01:17.300Z,19.15
2018-10-19T12:03:47.368Z,20.05
2018-10-19T12:06:17.423Z,18.97
2018-10-19T12:08:47.526Z,18.12
2018-10-19T12:11:17.951Z,19.14
2018-10-19T12:13:48.131Z,19.37
2018-10-19T12:16:18.323Z,18.78
2018-10-19T12:18:48.177Z,18.69
2018-10-19T12:21:18.595Z,18.10
2018-10-19T12:23:48.482Z,17.15
2018-10-19T12:26:18.368Z,18.44
2018-10-19T12:28:48.319Z,18.34
2018-10-19T12:31:18.596Z,19.41
2018-10-19T12:33:48.358Z,20.46
2018-10-19T12:36:18.264Z,18.97
2018-10-19T12:38:48.072Z,19.01
2018-10-19T12:41:17.897Z,19.67
2018-10-19T12:43:47.559Z,19.14
2018-10-19T12:46:29.359Z,19.49
2018-10-19T12:48:59.252Z,20.32
2018-10-19T12:51:30.284Z,20.07
2018-10-19T12:54:00.191Z,20.14
2018-10-19T12:56:30.146Z,19.34
2018-10-19T12:58:59.967Z,19.78
2018-10-19T13:01:31.657Z,19.29
2018-10-19T13:04:02.121Z,19.41
2018-10-19T13:06:32.061Z,18.71
2018-10-19T13:09:02.015Z,20.15
2018-10-19T13:11:34.674Z,19.62
2018-10-19T13:14:04.492Z,18.96
2018-10-19T13:16:34.326Z,18.57
2018-10-19T13:19:04.226Z,19.39
2018-10-19T13:21:34.493Z,18.30
2018-10-19T13:24:04.442Z,18.52
2018-10-19T13:26:34.343Z,19.57
2018-10-19T13:29:04.328Z,18.27
2018-10-19T13:31:34.711Z,20.40
2018-10-19T13:34:04.591Z,19.89
2018-10-19T13:36:34.472Z,20.04
2018-10-19T13:39:04.713Z,20.46
2018-10-19T13:41:34.675Z,20.67
2018-10-19T13:44:04.627Z,20.34
2018-10-19T13:46:34.634Z,20.41
2018-10-19T13:50:07.198Z,21.83
2018-10-19T13:52:37.099Z,22.49
2018-10-19T13:55:07.054Z,23.26
2018-10-19T13:57:36.953Z,23.79
2018-10-19T14:00:07.415Z,23.65
2018-10-19T14:02:37.978Z,24.07
2018-10-19T14:05:09.255Z,23.36
2018-10-19T14:07:40.381Z,23.82
2018-10-19T14:10:11.783Z,24.77
2018-10-19T14:12:42.278Z,25.32
2018-10-19T14:15:13.045Z,25.56
2018-10-19T14:17:44.579Z,25.68
2018-10-19T14:20:14.703Z,26.63
2018-10-19T14:22:44.549Z,26.29
2018-10-19T14:25:15.053Z,26.47
2018-10-19T14:27:45.793Z,27.84
2018-10-19T14:30:17.231Z,28.78
2018-10-19T14:32:47.639Z,28.67
2018-10-19T14:35:17.600Z,29.44
2018-10-19T14:37:48.147Z,28.96
2018-10-19T14:40:20.318Z,28.87
2018-10-19T14:42:50.368Z,29.52
2018-10-19T14:45:20.396Z,30.87
2018-10-19T14:47:50.702Z,30.55
2018-10-19T14:50:20.808Z,31.03
2018-10-19T14:52:50.823Z,30.69
2018-10-19T14:55:21.195Z,30.40
2018-10-19T14:57:52.634Z,30.77
2018-10-19T15:00:22.619Z,31.65
2018-10-19T15:02:52.655Z,30.86
2018-10-19T15:05:22.676Z,31.68
2018-10-19T15:07:53.098Z,30.24
2018-10-19T15:10:23.928Z,31.13
2018-10-19T15:12:53.858Z,31.41
2018-10-19T15:15:24.244Z,33.00
2018-10-19T15:17:54.984Z,32.13
2018-10-19T15:20:24.930Z,33.33
2018-10-19T15:22:54.912Z,32.97
2018-10-19T15:25:24.854Z,33.31
2018-10-19T15:27:54.880Z,33.13
2018-10-19T15:30:24.779Z,33.29
2018-10-19T15:32:54.935Z,32.92
2018-10-19T15:35:24.766Z,32.46
2018-10-19T15:37:54.569Z,33.14
2018-10-19T15:40:24.251Z,33.57
2018-10-19T15:42:54.033Z,33.13
2018-10-19T15:45:23.904Z,33.22
2018-10-19T15:47:53.659Z,33.49
2018-10-19T15:50:23.482Z,33.03
2018-10-19T15:52:53.834Z,33.92
2018-10-19T15:55:23.744Z,33.16
2018-10-19T15:57:53.662Z,33.80
2018-10-19T16:00:23.527Z,34.52
2018-10-19T16:02:53.416Z,34.99
2018-10-19T16:05:23.358Z,34.59
2018-10-19T16:07:53.125Z,34.32
2018-10-19T16:10:23.377Z,35.06
2018-10-19T16:12:53.573Z,35.39
2018-10-19T16:15:23.740Z,35.06
2018-10-19T16:17:53.992Z,35.99
2018-10-19T16:20:23.967Z,36.64
2018-10-19T16:22:53.822Z,37.12
2018-10-19T16:25:23.859Z,36.77
2018-10-19T16:27:54.239Z,37.24
2018-10-19T16:30:24.159Z,36.50
2018-10-19T16:32:54.155Z,36.39
2018-10-19T16:35:24.293Z,36.13
2018-10-19T16:37:54.438Z,36.45
2018-10-19T16:40:24.361Z,36.73
2018-10-19T16:42:54.252Z,37.92
2018-10-19T16:45:24.111Z,36.58
2018-10-19T16:47:54.039Z,37.32
2018-10-19T16:50:23.973Z,36.92
2018-10-19T16:52:53.983Z,37.18
2018-10-19T16:55:23.970Z,38.03
2018-10-19T16:57:53.905Z,38.09
2018-10-19T17:00:23.851Z,37.98
2018-10-19T17:02:53.698Z,37.73
2018-10-19T17:05:23.859Z,38.73
2018-10-19T17:07:53.606Z,39.85
2018-10-19T17:10:23.601Z,39.29
2018-10-19T17:12:53.619Z,39.20
2018-10-19T17:15:23.394Z,39.11
2018-10-19T17:17:53.281Z,40.31
2018-10-19T17:20:23.201Z,40.64
2018-10-19T17:22:53.307Z,42.29
2018-10-19T17:25:23.338Z,41.07
2018-10-19T17:27:53.389Z,40.81
2018-10-19T17:30:24.063Z,40.33
2018-10-19T17:32:53.972Z,41.21
2018-10-19T17:35:23.862Z,42.59
2018-10-19T17:37:54.192Z,42.77
2018-10-19T17:40:24.316Z,42.56
2018-10-19T17:42:54.231Z,43.73
2018-10-19T17:45:24.247Z,44.04
2018-10-19T17:47:54.346Z,41.24
2018-10-19T17:50:25.079Z,40.72
2018-10-19T17:52:55.118Z,41.33
2018-10-19T17:55:25.171Z,41.92
2018-10-19T17:57:55.947Z,41.53
2018-10-19T18:00:25.967Z,41.50
2018-10-19T18:02:55.970Z,41.18
2018-10-19T18:05:25.966Z,41.25
2018-10-19T18:07:56.862Z,41.71
2018-10-19T18:10:26.805Z,41.79
2018-10-19T18:12:56.876Z,41.46
2018-10-19T18:15:27.039Z,40.46
2018-10-19T18:17:58.245Z,41.14
2018-10-19T18:20:29.366Z,41.00
2018-10-19T18:22:59.707Z,41.17
2018-10-19T18:25:31.388Z,41.20
2018-10-19T18:28:02.040Z,40.96
2018-10-19T18:30:32.168Z,41.98
2018-10-19T18:33:02.644Z,43.37
2018-10-19T18:35:32.756Z,44.28
2018-10-19T18:38:04.013Z,44.25
2018-10-19T18:40:34.045Z,43.64
2018-10-19T18:43:04.039Z,43.23
2018-10-19T18:45:34.032Z,43.24
2018-10-19T18:48:05.402Z,42.56
2018-10-19T18:50:35.459Z,43.71
2018-10-19T18:53:05.999Z,42.81
2018-10-19T18:55:35.934Z,42.78
2018-10-19T18:58:07.370Z,42.36
2018-10-19T19:00:37.489Z,43.04
2018-10-19T19:03:07.811Z,43.19
2018-10-19T19:05:37.813Z,42.44
2018-10-19T19:08:08.554Z,42.40
2018-10-19T19:10:38.635Z,42.28
2018-10-19T19:13:13.634Z,42.27
2018-10-19T19:15:43.675Z,42.88
2018-10-19T19:18:14.609Z,43.33
2018-10-19T19:20:44.607Z,43.46
2018-10-19T19:23:14.915Z,44.39
2018-10-19T19:25:50.025Z,43.52
2018-10-19T19:28:20.203Z,43.57
2018-10-19T19:30:50.264Z,43.12
2018-10-19T19:35:32.493Z,42.61
2018-10-19T19:38:02.597Z,42.71
2018-10-19T19:40:37.817Z,44.05
2018-10-19T19:43:08.078Z,44.74
2018-10-19T19:45:38.567Z,45.71
2018-10-19T19:48:14.666Z,46.10
2018-10-19T19:50:44.824Z,45.88
2018-10-19T19:53:14.963Z,46.42
2018-10-19T19:55:44.890Z,45.46
2018-10-19T19:58:15.763Z,45.88
2018-10-19T20:00:45.686Z,45.10
2018-10-19T20:03:15.712Z,44.92
2018-10-19T20:05:45.924Z,43.83
2018-10-19T20:08:16.051Z,44.12
2018-10-19T20:10:46.152Z,43.53
2018-10-19T20:13:16.247Z,43.45
2018-10-19T20:15:46.290Z,43.74
2018-10-19T20:18:16.771Z,43.41
2018-10-19T20:20:46.835Z,43.45
2018-10-19T20:23:16.773Z,43.60
2018-10-19T20:25:46.910Z,45.03
2018-10-19T20:28:16.967Z,44.45
2018-10-19T20:30:46.958Z,43.64
2018-10-19T20:33:17.033Z,43.86
2018-10-19T20:35:47.080Z,43.97
2018-10-19T20:38:17.657Z,44.00
2018-10-19T20:40:47.977Z,43.90
2018-10-19T20:43:18.076Z,43.75
2018-10-19T20:45:48.048Z,43.49
2018-10-19T20:48:18.109Z,43.67
2018-10-19T20:50:48.068Z,43.86
2018-10-19T20:53:18.057Z,44.31
2018-10-19T20:55:48.017Z,44.94
2018-10-19T20:58:18.002Z,44.55
2018-10-19T21:00:48.104Z,45.13
2018-10-19T21:03:18.098Z,45.94
2018-10-19T21:05:48.187Z,45.31
2018-10-19T21:08:19.341Z,44.98
2018-10-19T21:10:49.438Z,45.02
2018-10-19T21:13:19.537Z,44.72
2018-10-19T21:15:49.589Z,44.54
2018-10-19T21:18:20.018Z,44.51
2018-10-19T21:20:49.972Z,44.78
2018-10-19T21:23:19.919Z,45.31
2018-10-19T21:25:49.943Z,44.66
2018-10-19T21:28:19.925Z,44.98
2018-10-19T21:30:49.952Z,45.20
2018-10-19T21:33:19.997Z,45.54
2018-10-19T21:35:50.046Z,45.80
2018-10-19T21:38:20.410Z,45.38
2018-10-19T21:40:50.614Z,45.30
2018-10-19T21:43:20.562Z,45.34
2018-10-19T21:45:50.607Z,46.01
2018-10-19T21:48:20.811Z,46.10
2018-10-19T21:50:50.625Z,46.05
2018-10-19T21:53:20.663Z,46.13
2018-10-19T21:55:50.774Z,46.32
2018-10-19T21:58:20.677Z,46.32
2018-10-19T22:00:50.644Z,46.16
2018-10-19T22:03:20.547Z,46.53
2018-10-19T22:05:50.713Z,46.56
2018-10-19T22:08:20.910Z,46.66
2018-10-19T22:10:50.908Z,46.51
2018-10-19T22:13:21.049Z,47.85
2018-10-19T22:15:50.999Z,47.89
2018-10-19T22:18:21.550Z,47.34
2018-10-19T22:20:51.535Z,47.15
2018-10-19T22:23:21.555Z,47.17
2018-10-19T22:25:51.434Z,49.98
2018-10-19T22:28:21.982Z,48.32
2018-10-19T22:30:52.048Z,48.54
2018-10-19T22:33:22.011Z,48.59
2018-10-19T22:35:52.026Z,49.31
2018-10-19T22:38:22.803Z,48.99
2018-10-19T22:40:52.824Z,48.78
2018-10-19T22:43:22.843Z,50.14
2018-10-19T22:45:52.928Z,51.21
2018-10-19T22:48:23.331Z,51.82
2018-10-19T22:50:53.271Z,52.32
2018-10-19T22:53:23.260Z,51.28
2018-10-19T22:55:53.344Z,50.44
2018-10-19T22:58:23.863Z,51.04
2018-10-19T23:00:53.976Z,50.67
2018-10-19T23:03:24.071Z,50.03
2018-10-19T23:05:53.998Z,49.71
2018-10-19T23:08:24.966Z,49.62
2018-10-19T23:10:55.154Z,49.96
2018-10-19T23:13:25.315Z,49.67
2018-10-19T23:15:55.215Z,49.54
2018-10-19T23:18:25.433Z,50.43
2018-10-19T23:20:55.373Z,49.79
2018-10-19T23:23:25.397Z,49.10
2018-10-19T23:25:55.428Z,50.03
2018-10-19T23:28:26.459Z,50.08
2018-10-19T23:30:56.361Z,49.49
2018-10-19T23:33:26.340Z,50.31
2018-10-19T23:35:56.290Z,51.81
2018-10-19T23:38:26.924Z,50.85
2018-10-19T23:40:57.233Z,50.57
2018-10-19T23:43:27.381Z,50.63
2018-10-19T23:45:57.381Z,51.09
2018-10-19T23:48:27.928Z,50.32
2018-10-19T23:50:57.903Z,50.65
2018-10-19T23:53:27.855Z,50.42
2018-10-19T23:55:57.815Z,50.49
2018-10-19T23:58:28.287Z,50.28
